Portada
METAR-TAF:

METAR-TAF

Aeroports :

Batam, Indonèsia

latitud: 01-07-15N, longitud: 104-07-07E, altitud: 38 m

Observació

L'informe es va fer fa 23 minuts, a les 12:30 UTC
Vent calma
Temperatura 28°C
Humitat 89%
Pressió 1008 hPa
Visibilitat 10 km o més
Escasses núvols a una alçada de 1300 ft

METAR: WIDD 141230Z 00000KT 9999 FEW013 28/26 Q1008 NOSIG

Hora: 19:53 (12:53 UTC)

Pronòstic

L'informe es va fer fa 1 hora i 53 minuts, a les 11:00 UTC
Pronòstic vàlid del 14 a les 12 UTC al 15 a les 12 UTC
Vent 4 kt del Sud-Est
Visibilitat 10 km o més
Núvols disperses a una alçada de 1400 ft
Probabilitat 30% :
Temporalment
l' 14 a les 16 UTC al 14 a les 19 UTC
Escasses núvols a una alçada de 1300 ft, Cumulonimbus.
tempesta, pluja

TAF: WIDD 141100Z 1412/1512 13004KT 9999 SCT014 PROB30 TEMPO 1416/1419 -TSRA FEW013CB

Observacions i pronòstics meteorològics de més de 4000 aeroports (METAR i TAF).

Les estacions disponibles són els punts grocs i vermells al mapa.

Posi el ratolí al punt desitjat per veure el nom de l'estació.

Feu clic per veure les observacions i els pronòstics meteorològics.

Per canviar el mapa: feu clic els botons verds amb una creu de color negre per apropar; al botó verd amb un guió per allunyar la imatge; o en les fletxes verdes per a mapes adjacents.


METAR-TAF: